sensor_id;sensor_type;location;lat;lon;timestamp;P1;durP1;ratioP1;P2;durP2;ratioP2
60352;SDS011;46196;52.970;6.954;2023-04-25T00:01:01;21.50;;;5.95;;
60352;SDS011;46196;52.970;6.954;2023-04-25T00:03:28;27.27;;;6.53;;
60352;SDS011;46196;52.970;6.954;2023-04-25T00:05:54;17.83;;;4.03;;
60352;SDS011;46196;52.970;6.954;2023-04-25T00:08:21;22.77;;;4.80;;
60352;SDS011;46196;52.970;6.954;2023-04-25T00:10:47;15.93;;;4.95;;
60352;SDS011;46196;52.970;6.954;2023-04-25T00:13:14;14.45;;;4.80;;
60352;SDS011;46196;52.970;6.954;2023-04-25T00:15:40;10.50;;;3.70;;
60352;SDS011;46196;52.970;6.954;2023-04-25T00:18:06;18.85;;;4.93;;
60352;SDS011;46196;52.970;6.954;2023-04-25T00:20:32;22.52;;;4.53;;
60352;SDS011;46196;52.970;6.954;2023-04-25T00:22:58;19.13;;;5.90;;
60352;SDS011;46196;52.970;6.954;2023-04-25T00:25:24;19.00;;;5.35;;
60352;SDS011;46196;52.970;6.954;2023-04-25T00:27:49;20.02;;;4.97;;
60352;SDS011;46196;52.970;6.954;2023-04-25T00:30:15;11.98;;;4.65;;
60352;SDS011;46196;52.970;6.954;2023-04-25T00:32:41;16.17;;;5.28;;
60352;SDS011;46196;52.970;6.954;2023-04-25T00:35:07;24.20;;;6.55;;
60352;SDS011;46196;52.970;6.954;2023-04-25T00:37:32;21.13;;;5.03;;
60352;SDS011;46196;52.970;6.954;2023-04-25T00:39:58;25.13;;;6.13;;
60352;SDS011;46196;52.970;6.954;2023-04-25T00:42:24;23.08;;;5.00;;
60352;SDS011;46196;52.970;6.954;2023-04-25T00:44:51;21.88;;;5.30;;
60352;SDS011;46196;52.970;6.954;2023-04-25T00:47:18;21.10;;;5.50;;
60352;SDS011;46196;52.970;6.954;2023-04-25T00:49:43;23.23;;;6.15;;
60352;SDS011;46196;52.970;6.954;2023-04-25T00:52:09;30.50;;;5.65;;
60352;SDS011;46196;52.970;6.954;2023-04-25T00:54:36;28.92;;;6.20;;
60352;SDS011;46196;52.970;6.954;2023-04-25T00:57:03;19.58;;;5.47;;
60352;SDS011;46196;52.970;6.954;2023-04-25T00:59:29;15.00;;;4.93;;
60352;SDS011;46196;52.970;6.954;2023-04-25T01:01:56;11.55;;;3.80;;
60352;SDS011;46196;52.970;6.954;2023-04-25T01:04:21;19.30;;;5.35;;
60352;SDS011;46196;52.970;6.954;2023-04-25T01:06:47;31.52;;;5.70;;
60352;SDS011;46196;52.970;6.954;2023-04-25T01:09:13;26.52;;;7.13;;
60352;SDS011;46196;52.970;6.954;2023-04-25T01:11:40;28.40;;;4.93;;
60352;SDS011;46196;52.970;6.954;2023-04-25T01:14:05;31.35;;;5.90;;
60352;SDS011;46196;52.970;6.954;2023-04-25T01:16:31;27.83;;;6.18;;
60352;SDS011;46196;52.970;6.954;2023-04-25T01:18:58;26.60;;;5.80;;
60352;SDS011;46196;52.970;6.954;2023-04-25T01:21:24;25.83;;;5.35;;
60352;SDS011;46196;52.970;6.954;2023-04-25T01:23:52;16.48;;;4.53;;
60352;SDS011;46196;52.970;6.954;2023-04-25T01:26:18;20.50;;;4.97;;
60352;SDS011;46196;52.970;6.954;2023-04-25T01:28:46;12.95;;;3.92;;
60352;SDS011;46196;52.970;6.954;2023-04-25T01:31:12;17.10;;;4.40;;
60352;SDS011;46196;52.970;6.954;2023-04-25T01:33:39;17.55;;;4.55;;
60352;SDS011;46196;52.970;6.954;2023-04-25T01:36:05;15.43;;;5.05;;
60352;SDS011;46196;52.970;6.954;2023-04-25T01:38:31;16.10;;;4.50;;
60352;SDS011;46196;52.970;6.954;2023-04-25T01:40:57;16.15;;;5.30;;
60352;SDS011;46196;52.970;6.954;2023-04-25T01:43:23;23.75;;;5.18;;
60352;SDS011;46196;52.970;6.954;2023-04-25T01:45:49;13.70;;;4.93;;
60352;SDS011;46196;52.970;6.954;2023-04-25T01:48:15;15.10;;;4.32;;
60352;SDS011;46196;52.970;6.954;2023-04-25T01:50:41;17.98;;;4.38;;
60352;SDS011;46196;52.970;6.954;2023-04-25T01:53:06;17.13;;;4.95;;
60352;SDS011;46196;52.970;6.954;2023-04-25T01:55:34;20.08;;;5.13;;
60352;SDS011;46196;52.970;6.954;2023-04-25T01:58:01;19.17;;;5.38;;
60352;SDS011;46196;52.970;6.954;2023-04-25T02:00:27;26.15;;;5.18;;
60352;SDS011;46196;52.970;6.954;2023-04-25T02:02:53;19.45;;;4.05;;
60352;SDS011;46196;52.970;6.954;2023-04-25T02:05:19;21.92;;;4.72;;
60352;SDS011;46196;52.970;6.954;2023-04-25T02:07:45;18.10;;;4.40;;
60352;SDS011;46196;52.970;6.954;2023-04-25T02:10:12;16.80;;;3.88;;
60352;SDS011;46196;52.970;6.954;2023-04-25T02:12:37;13.90;;;4.18;;
60352;SDS011;46196;52.970;6.954;2023-04-25T02:15:03;15.10;;;4.30;;
60352;SDS011;46196;52.970;6.954;2023-04-25T02:17:29;19.77;;;4.90;;
60352;SDS011;46196;52.970;6.954;2023-04-25T02:19:56;13.65;;;4.30;;
60352;SDS011;46196;52.970;6.954;2023-04-25T02:22:22;13.30;;;4.50;;
60352;SDS011;46196;52.970;6.954;2023-04-25T02:24:48;19.02;;;4.40;;
60352;SDS011;46196;52.970;6.954;2023-04-25T02:27:13;10.05;;;3.70;;
60352;SDS011;46196;52.970;6.954;2023-04-25T02:29:39;16.60;;;4.90;;
60352;SDS011;46196;52.970;6.954;2023-04-25T02:32:05;16.70;;;5.53;;
60352;SDS011;46196;52.970;6.954;2023-04-25T02:34:30;15.88;;;4.43;;
60352;SDS011;46196;52.970;6.954;2023-04-25T02:36:56;20.48;;;4.88;;
60352;SDS011;46196;52.970;6.954;2023-04-25T02:39:22;16.92;;;4.15;;
60352;SDS011;46196;52.970;6.954;2023-04-25T02:41:50;24.83;;;5.90;;
60352;SDS011;46196;52.970;6.954;2023-04-25T02:44:16;17.55;;;4.22;;
60352;SDS011;46196;52.970;6.954;2023-04-25T02:46:41;18.27;;;5.55;;
60352;SDS011;46196;52.970;6.954;2023-04-25T02:49:07;11.80;;;3.88;;
60352;SDS011;46196;52.970;6.954;2023-04-25T02:51:33;16.65;;;4.95;;
60352;SDS011;46196;52.970;6.954;2023-04-25T02:53:59;19.50;;;4.93;;
60352;SDS011;46196;52.970;6.954;2023-04-25T02:56:24;25.00;;;4.72;;
60352;SDS011;46196;52.970;6.954;2023-04-25T02:58:51;16.83;;;3.97;;
60352;SDS011;46196;52.970;6.954;2023-04-25T03:01:17;17.48;;;4.20;;
60352;SDS011;46196;52.970;6.954;2023-04-25T03:03:42;17.35;;;4.18;;
60352;SDS011;46196;52.970;6.954;2023-04-25T03:06:09;19.92;;;4.50;;
60352;SDS011;46196;52.970;6.954;2023-04-25T03:08:34;18.77;;;4.22;;
60352;SDS011;46196;52.970;6.954;2023-04-25T03:11:00;12.75;;;4.18;;
60352;SDS011;46196;52.970;6.954;2023-04-25T03:13:26;10.57;;;4.07;;
60352;SDS011;46196;52.970;6.954;2023-04-25T03:15:52;14.90;;;3.90;;
60352;SDS011;46196;52.970;6.954;2023-04-25T03:18:18;17.75;;;4.55;;
60352;SDS011;46196;52.970;6.954;2023-04-25T03:20:43;13.32;;;3.92;;
60352;SDS011;46196;52.970;6.954;2023-04-25T03:23:09;15.13;;;4.45;;
60352;SDS011;46196;52.970;6.954;2023-04-25T03:25:35;11.43;;;3.80;;
60352;SDS011;46196;52.970;6.954;2023-04-25T03:28:01;13.18;;;3.55;;
60352;SDS011;46196;52.970;6.954;2023-04-25T03:30:26;18.45;;;3.38;;
60352;SDS011;46196;52.970;6.954;2023-04-25T03:32:52;11.90;;;3.53;;
60352;SDS011;46196;52.970;6.954;2023-04-25T03:35:18;17.08;;;3.90;;
60352;SDS011;46196;52.970;6.954;2023-04-25T03:37:43;12.77;;;3.50;;
60352;SDS011;46196;52.970;6.954;2023-04-25T03:40:12;16.20;;;3.58;;
60352;SDS011;46196;52.970;6.954;2023-04-25T03:42:37;24.02;;;5.82;;
60352;SDS011;46196;52.970;6.954;2023-04-25T03:45:03;20.50;;;4.15;;
60352;SDS011;46196;52.970;6.954;2023-04-25T03:47:29;12.15;;;3.10;;
60352;SDS011;46196;52.970;6.954;2023-04-25T03:49:55;10.20;;;4.28;;
60352;SDS011;46196;52.970;6.954;2023-04-25T03:52:20;8.10;;;3.78;;
60352;SDS011;46196;52.970;6.954;2023-04-25T03:54:46;9.48;;;3.80;;
60352;SDS011;46196;52.970;6.954;2023-04-25T03:57:12;9.82;;;3.97;;
60352;SDS011;46196;52.970;6.954;2023-04-25T03:59:37;17.27;;;3.90;;
60352;SDS011;46196;52.970;6.954;2023-04-25T04:02:03;15.10;;;3.67;;
60352;SDS011;46196;52.970;6.954;2023-04-25T04:04:29;16.77;;;3.78;;
60352;SDS011;46196;52.970;6.954;2023-04-25T04:06:55;16.15;;;4.28;;
60352;SDS011;46196;52.970;6.954;2023-04-25T04:09:20;9.73;;;3.42;;
60352;SDS011;46196;52.970;6.954;2023-04-25T04:11:47;12.57;;;3.65;;
60352;SDS011;46196;52.970;6.954;2023-04-25T04:14:12;17.10;;;3.72;;
60352;SDS011;46196;52.970;6.954;2023-04-25T04:16:38;12.30;;;3.50;;
60352;SDS011;46196;52.970;6.954;2023-04-25T04:19:04;9.82;;;3.00;;
60352;SDS011;46196;52.970;6.954;2023-04-25T04:21:30;13.35;;;3.65;;
60352;SDS011;46196;52.970;6.954;2023-04-25T04:23:57;11.07;;;3.63;;
60352;SDS011;46196;52.970;6.954;2023-04-25T04:26:25;10.15;;;3.30;;
60352;SDS011;46196;52.970;6.954;2023-04-25T04:28:51;15.30;;;3.45;;
60352;SDS011;46196;52.970;6.954;2023-04-25T04:31:19;10.63;;;3.42;;
60352;SDS011;46196;52.970;6.954;2023-04-25T04:33:45;14.02;;;3.78;;
60352;SDS011;46196;52.970;6.954;2023-04-25T04:36:11;10.13;;;3.17;;
60352;SDS011;46196;52.970;6.954;2023-04-25T04:38:38;17.02;;;3.60;;
60352;SDS011;46196;52.970;6.954;2023-04-25T04:41:03;13.43;;;3.33;;
60352;SDS011;46196;52.970;6.954;2023-04-25T04:43:29;17.52;;;4.07;;
60352;SDS011;46196;52.970;6.954;2023-04-25T04:45:55;13.48;;;3.50;;
60352;SDS011;46196;52.970;6.954;2023-04-25T04:48:23;11.68;;;3.13;;
60352;SDS011;46196;52.970;6.954;2023-04-25T04:50:49;13.13;;;3.40;;
60352;SDS011;46196;52.970;6.954;2023-04-25T04:53:15;12.65;;;3.65;;
60352;SDS011;46196;52.970;6.954;2023-04-25T04:55:41;9.27;;;3.10;;
60352;SDS011;46196;52.970;6.954;2023-04-25T04:58:07;11.90;;;3.20;;
60352;SDS011;46196;52.970;6.954;2023-04-25T05:00:33;21.02;;;3.65;;
60352;SDS011;46196;52.970;6.954;2023-04-25T05:02:59;10.35;;;3.15;;
60352;SDS011;46196;52.970;6.954;2023-04-25T05:05:26;9.20;;;3.20;;
60352;SDS011;46196;52.970;6.954;2023-04-25T05:07:51;11.35;;;3.28;;
60352;SDS011;46196;52.970;6.954;2023-04-25T05:10:18;11.65;;;3.30;;
60352;SDS011;46196;52.970;6.954;2023-04-25T05:12:44;7.15;;;2.58;;
60352;SDS011;46196;52.970;6.954;2023-04-25T05:15:10;12.48;;;3.20;;
60352;SDS011;46196;52.970;6.954;2023-04-25T05:17:36;11.70;;;3.30;;
60352;SDS011;46196;52.970;6.954;2023-04-25T05:20:02;9.70;;;3.15;;
60352;SDS011;46196;52.970;6.954;2023-04-25T05:22:29;11.32;;;3.47;;
60352;SDS011;46196;52.970;6.954;2023-04-25T05:24:54;10.05;;;3.10;;
60352;SDS011;46196;52.970;6.954;2023-04-25T05:27:20;9.85;;;2.83;;
60352;SDS011;46196;52.970;6.954;2023-04-25T05:29:46;17.42;;;4.50;;
60352;SDS011;46196;52.970;6.954;2023-04-25T05:32:11;6.80;;;2.67;;
60352;SDS011;46196;52.970;6.954;2023-04-25T05:34:37;11.88;;;4.28;;
60352;SDS011;46196;52.970;6.954;2023-04-25T05:37:03;12.32;;;3.15;;
60352;SDS011;46196;52.970;6.954;2023-04-25T05:39:29;13.25;;;3.47;;
60352;SDS011;46196;52.970;6.954;2023-04-25T05:41:54;10.20;;;2.90;;
60352;SDS011;46196;52.970;6.954;2023-04-25T05:44:20;12.40;;;3.70;;
60352;SDS011;46196;52.970;6.954;2023-04-25T05:46:46;11.32;;;3.13;;
60352;SDS011;46196;52.970;6.954;2023-04-25T05:49:12;5.30;;;3.05;;
60352;SDS011;46196;52.970;6.954;2023-04-25T05:51:37;6.80;;;2.85;;
60352;SDS011;46196;52.970;6.954;2023-04-25T05:54:03;8.00;;;3.35;;
60352;SDS011;46196;52.970;6.954;2023-04-25T05:56:29;4.82;;;2.60;;
60352;SDS011;46196;52.970;6.954;2023-04-25T05:58:54;7.28;;;2.80;;
60352;SDS011;46196;52.970;6.954;2023-04-25T06:01:21;4.80;;;2.40;;
60352;SDS011;46196;52.970;6.954;2023-04-25T06:03:48;9.40;;;2.95;;
60352;SDS011;46196;52.970;6.954;2023-04-25T06:06:14;6.45;;;2.65;;
60352;SDS011;46196;52.970;6.954;2023-04-25T06:08:40;6.53;;;2.50;;
60352;SDS011;46196;52.970;6.954;2023-04-25T06:11:06;11.55;;;2.75;;
60352;SDS011;46196;52.970;6.954;2023-04-25T06:13:32;7.25;;;3.20;;
60352;SDS011;46196;52.970;6.954;2023-04-25T06:15:58;8.57;;;3.05;;
60352;SDS011;46196;52.970;6.954;2023-04-25T06:18:23;4.68;;;2.58;;
60352;SDS011;46196;52.970;6.954;2023-04-25T06:20:49;11.70;;;2.78;;
60352;SDS011;46196;52.970;6.954;2023-04-25T06:23:15;7.72;;;3.15;;
60352;SDS011;46196;52.970;6.954;2023-04-25T06:25:40;7.13;;;2.83;;
60352;SDS011;46196;52.970;6.954;2023-04-25T06:28:06;10.35;;;2.97;;
60352;SDS011;46196;52.970;6.954;2023-04-25T06:30:32;9.48;;;3.10;;
60352;SDS011;46196;52.970;6.954;2023-04-25T06:32:58;6.82;;;3.05;;
60352;SDS011;46196;52.970;6.954;2023-04-25T06:35:23;10.85;;;3.42;;
60352;SDS011;46196;52.970;6.954;2023-04-25T06:37:49;9.02;;;2.92;;
60352;SDS011;46196;52.970;6.954;2023-04-25T06:40:14;9.10;;;3.15;;
60352;SDS011;46196;52.970;6.954;2023-04-25T06:42:42;13.20;;;2.90;;
60352;SDS011;46196;52.970;6.954;2023-04-25T06:45:08;9.88;;;2.55;;
60352;SDS011;46196;52.970;6.954;2023-04-25T06:47:34;8.02;;;2.67;;
60352;SDS011;46196;52.970;6.954;2023-04-25T06:49:59;13.27;;;3.00;;
60352;SDS011;46196;52.970;6.954;2023-04-25T06:52:25;10.57;;;2.85;;
60352;SDS011;46196;52.970;6.954;2023-04-25T06:54:51;9.65;;;2.70;;
60352;SDS011;46196;52.970;6.954;2023-04-25T06:57:16;6.93;;;2.17;;
60352;SDS011;46196;52.970;6.954;2023-04-25T06:59:42;9.95;;;3.28;;
60352;SDS011;46196;52.970;6.954;2023-04-25T07:02:07;5.95;;;2.30;;
60352;SDS011;46196;52.970;6.954;2023-04-25T07:04:33;8.07;;;2.70;;
60352;SDS011;46196;52.970;6.954;2023-04-25T07:06:59;7.80;;;2.42;;
60352;SDS011;46196;52.970;6.954;2023-04-25T07:09:27;7.13;;;2.90;;
60352;SDS011;46196;52.970;6.954;2023-04-25T07:11:53;4.97;;;2.30;;
60352;SDS011;46196;52.970;6.954;2023-04-25T07:14:19;8.02;;;2.40;;
60352;SDS011;46196;52.970;6.954;2023-04-25T07:16:45;4.20;;;2.03;;
60352;SDS011;46196;52.970;6.954;2023-04-25T07:19:11;14.02;;;3.00;;
60352;SDS011;46196;52.970;6.954;2023-04-25T07:21:37;6.03;;;2.88;;
60352;SDS011;46196;52.970;6.954;2023-04-25T07:24:03;7.95;;;3.15;;
60352;SDS011;46196;52.970;6.954;2023-04-25T07:26:28;13.38;;;3.40;;
60352;SDS011;46196;52.970;6.954;2023-04-25T07:28:54;9.13;;;2.83;;
60352;SDS011;46196;52.970;6.954;2023-04-25T07:31:21;7.38;;;2.28;;
60352;SDS011;46196;52.970;6.954;2023-04-25T07:33:47;10.68;;;2.60;;
60352;SDS011;46196;52.970;6.954;2023-04-25T07:36:13;7.82;;;2.40;;
60352;SDS011;46196;52.970;6.954;2023-04-25T07:38:40;10.50;;;2.83;;
60352;SDS011;46196;52.970;6.954;2023-04-25T07:41:06;6.82;;;2.35;;
60352;SDS011;46196;52.970;6.954;2023-04-25T07:43:32;7.07;;;2.33;;
60352;SDS011;46196;52.970;6.954;2023-04-25T07:45:58;10.77;;;2.70;;
60352;SDS011;46196;52.970;6.954;2023-04-25T07:48:23;11.40;;;3.22;;
60352;SDS011;46196;52.970;6.954;2023-04-25T07:50:49;7.28;;;2.60;;
60352;SDS011;46196;52.970;6.954;2023-04-25T07:53:15;9.32;;;2.50;;
60352;SDS011;46196;52.970;6.954;2023-04-25T07:55:42;8.30;;;3.08;;
60352;SDS011;46196;52.970;6.954;2023-04-25T07:58:08;10.98;;;2.63;;
60352;SDS011;46196;52.970;6.954;2023-04-25T08:00:35;9.38;;;2.58;;
60352;SDS011;46196;52.970;6.954;2023-04-25T08:03:01;10.10;;;2.83;;
60352;SDS011;46196;52.970;6.954;2023-04-25T08:05:27;6.82;;;2.42;;
60352;SDS011;46196;52.970;6.954;2023-04-25T08:07:53;7.68;;;2.67;;
60352;SDS011;46196;52.970;6.954;2023-04-25T08:10:19;6.55;;;2.45;;
60352;SDS011;46196;52.970;6.954;2023-04-25T08:12:45;6.03;;;2.33;;
60352;SDS011;46196;52.970;6.954;2023-04-25T08:15:11;11.02;;;2.70;;
60352;SDS011;46196;52.970;6.954;2023-04-25T08:17:38;7.72;;;2.78;;
60352;SDS011;46196;52.970;6.954;2023-04-25T08:20:04;6.50;;;2.13;;
60352;SDS011;46196;52.970;6.954;2023-04-25T08:22:31;7.22;;;2.10;;
60352;SDS011;46196;52.970;6.954;2023-04-25T08:24:56;7.18;;;2.35;;
60352;SDS011;46196;52.970;6.954;2023-04-25T08:27:22;7.65;;;2.38;;
60352;SDS011;46196;52.970;6.954;2023-04-25T08:29:48;6.45;;;2.15;;
60352;SDS011;46196;52.970;6.954;2023-04-25T08:32:15;9.25;;;2.40;;
60352;SDS011;46196;52.970;6.954;2023-04-25T08:34:40;7.07;;;2.53;;
60352;SDS011;46196;52.970;6.954;2023-04-25T08:37:08;5.70;;;2.40;;
60352;SDS011;46196;52.970;6.954;2023-04-25T08:39:35;6.88;;;2.17;;
60352;SDS011;46196;52.970;6.954;2023-04-25T08:42:02;10.82;;;2.45;;
60352;SDS011;46196;52.970;6.954;2023-04-25T08:44:33;14.00;;;2.78;;
60352;SDS011;46196;52.970;6.954;2023-04-25T08:47:00;8.07;;;2.05;;
60352;SDS011;46196;52.970;6.954;2023-04-25T08:49:31;8.27;;;2.05;;
60352;SDS011;46196;52.970;6.954;2023-04-25T08:52:01;6.65;;;2.15;;
60352;SDS011;46196;52.970;6.954;2023-04-25T08:54:30;8.63;;;2.45;;
60352;SDS011;46196;52.970;6.954;2023-04-25T08:56:57;6.40;;;2.35;;
60352;SDS011;46196;52.970;6.954;2023-04-25T08:59:29;5.38;;;2.00;;
60352;SDS011;46196;52.970;6.954;2023-04-25T09:01:56;4.68;;;2.00;;
60352;SDS011;46196;52.970;6.954;2023-04-25T09:04:22;8.93;;;2.40;;
60352;SDS011;46196;52.970;6.954;2023-04-25T09:06:48;5.38;;;2.10;;
60352;SDS011;46196;52.970;6.954;2023-04-25T09:09:14;4.03;;;2.08;;
60352;SDS011;46196;52.970;6.954;2023-04-25T09:11:40;4.75;;;1.80;;
60352;SDS011;46196;52.970;6.954;2023-04-25T09:14:11;4.50;;;1.98;;
60352;SDS011;46196;52.970;6.954;2023-04-25T09:16:58;3.90;;;1.70;;
60352;SDS011;46196;52.970;6.954;2023-04-25T09:19:26;3.65;;;1.73;;
60352;SDS011;46196;52.970;6.954;2023-04-25T09:24:38;5.05;;;1.65;;
60352;SDS011;46196;52.970;6.954;2023-04-25T09:27:09;5.88;;;2.38;;
60352;SDS011;46196;52.970;6.954;2023-04-25T09:29:40;3.45;;;1.80;;
60352;SDS011;46196;52.970;6.954;2023-04-25T09:32:10;4.75;;;1.90;;
60352;SDS011;46196;52.970;6.954;2023-04-25T09:34:47;3.47;;;1.67;;
60352;SDS011;46196;52.970;6.954;2023-04-25T09:37:24;5.38;;;2.30;;
60352;SDS011;46196;52.970;6.954;2023-04-25T09:39:58;7.75;;;2.30;;
60352;SDS011;46196;52.970;6.954;2023-04-25T09:42:28;9.05;;;2.38;;
60352;SDS011;46196;52.970;6.954;2023-04-25T09:44:56;4.20;;;2.07;;
60352;SDS011;46196;52.970;6.954;2023-04-25T09:47:23;4.75;;;2.00;;
60352;SDS011;46196;52.970;6.954;2023-04-25T09:49:50;4.60;;;2.17;;
60352;SDS011;46196;52.970;6.954;2023-04-25T09:52:20;6.82;;;2.20;;
60352;SDS011;46196;52.970;6.954;2023-04-25T09:54:50;3.25;;;1.77;;
60352;SDS011;46196;52.970;6.954;2023-04-25T09:57:18;7.75;;;2.42;;
60352;SDS011;46196;52.970;6.954;2023-04-25T09:59:46;7.05;;;2.70;;
60352;SDS011;46196;52.970;6.954;2023-04-25T10:02:13;8.02;;;2.10;;
60352;SDS011;46196;52.970;6.954;2023-04-25T10:04:47;9.90;;;2.35;;
60352;SDS011;46196;52.970;6.954;2023-04-25T10:07:16;7.20;;;2.80;;
60352;SDS011;46196;52.970;6.954;2023-04-25T10:09:42;7.05;;;2.35;;
60352;SDS011;46196;52.970;6.954;2023-04-25T10:12:10;10.55;;;2.40;;
60352;SDS011;46196;52.970;6.954;2023-04-25T10:14:36;9.88;;;2.80;;
60352;SDS011;46196;52.970;6.954;2023-04-25T10:17:02;9.07;;;2.00;;
60352;SDS011;46196;52.970;6.954;2023-04-25T10:19:28;8.65;;;2.60;;
60352;SDS011;46196;52.970;6.954;2023-04-25T10:25:02;6.05;;;2.33;;
60352;SDS011;46196;52.970;6.954;2023-04-25T10:27:29;7.13;;;2.17;;
60352;SDS011;46196;52.970;6.954;2023-04-25T10:30:08;7.32;;;2.40;;
60352;SDS011;46196;52.970;6.954;2023-04-25T10:32:41;4.50;;;2.20;;
60352;SDS011;46196;52.970;6.954;2023-04-25T10:35:40;6.28;;;2.22;;
60352;SDS011;46196;52.970;6.954;2023-04-25T10:38:03;9.73;;;2.47;;
60352;SDS011;46196;52.970;6.954;2023-04-25T10:40:30;8.88;;;2.20;;
60352;SDS011;46196;52.970;6.954;2023-04-25T10:43:33;7.00;;;2.53;;
60352;SDS011;46196;52.970;6.954;2023-04-25T10:45:57;9.38;;;2.67;;
60352;SDS011;46196;52.970;6.954;2023-04-25T10:48:25;5.40;;;2.17;;
60352;SDS011;46196;52.970;6.954;2023-04-25T10:56:25;9.10;;;2.40;;
60352;SDS011;46196;52.970;6.954;2023-04-25T10:59:02;6.05;;;2.88;;
60352;SDS011;46196;52.970;6.954;2023-04-25T11:01:45;6.35;;;2.63;;
60352;SDS011;46196;52.970;6.954;2023-04-25T11:04:22;5.10;;;2.05;;
60352;SDS011;46196;52.970;6.954;2023-04-25T11:06:58;7.22;;;2.08;;
60352;SDS011;46196;52.970;6.954;2023-04-25T11:09:45;8.05;;;2.40;;
60352;SDS011;46196;52.970;6.954;2023-04-25T11:12:11;4.60;;;2.25;;
60352;SDS011;46196;52.970;6.954;2023-04-25T11:14:38;7.78;;;2.40;;
60352;SDS011;46196;52.970;6.954;2023-04-25T11:17:04;9.70;;;2.75;;
60352;SDS011;46196;52.970;6.954;2023-04-25T11:19:30;5.15;;;2.45;;
60352;SDS011;46196;52.970;6.954;2023-04-25T11:21:57;7.95;;;2.65;;
60352;SDS011;46196;52.970;6.954;2023-04-25T11:24:27;13.05;;;3.15;;
60352;SDS011;46196;52.970;6.954;2023-04-25T11:26:53;6.55;;;2.22;;
60352;SDS011;46196;52.970;6.954;2023-04-25T11:29:21;7.50;;;2.25;;
60352;SDS011;46196;52.970;6.954;2023-04-25T11:31:57;4.80;;;2.10;;
60352;SDS011;46196;52.970;6.954;2023-04-25T11:34:24;9.02;;;2.10;;
60352;SDS011;46196;52.970;6.954;2023-04-25T11:36:50;15.82;;;2.63;;
60352;SDS011;46196;52.970;6.954;2023-04-25T11:39:19;14.27;;;2.83;;
60352;SDS011;46196;52.970;6.954;2023-04-25T11:41:46;8.43;;;2.60;;
60352;SDS011;46196;52.970;6.954;2023-04-25T11:44:12;8.55;;;2.40;;
60352;SDS011;46196;52.970;6.954;2023-04-25T11:46:40;8.00;;;1.92;;
60352;SDS011;46196;52.970;6.954;2023-04-25T11:49:07;5.15;;;2.20;;
60352;SDS011;46196;52.970;6.954;2023-04-25T11:51:39;5.45;;;1.85;;
60352;SDS011;46196;52.970;6.954;2023-04-25T11:54:09;8.70;;;2.80;;
60352;SDS011;46196;52.970;6.954;2023-04-25T11:56:36;6.85;;;2.30;;
60352;SDS011;46196;52.970;6.954;2023-04-25T11:59:03;8.10;;;2.60;;
60352;SDS011;46196;52.970;6.954;2023-04-25T12:01:34;4.18;;;1.75;;
60352;SDS011;46196;52.970;6.954;2023-04-25T12:06:38;6.80;;;2.30;;
60352;SDS011;46196;52.970;6.954;2023-04-25T12:09:07;7.93;;;2.50;;
60352;SDS011;46196;52.970;6.954;2023-04-25T12:11:42;11.73;;;2.87;;
60352;SDS011;46196;52.970;6.954;2023-04-25T12:14:12;5.35;;;2.15;;
60352;SDS011;46196;52.970;6.954;2023-04-25T12:16:49;11.75;;;2.80;;
60352;SDS011;46196;52.970;6.954;2023-04-25T12:19:16;12.52;;;3.17;;
60352;SDS011;46196;52.970;6.954;2023-04-25T12:21:43;7.15;;;2.35;;
60352;SDS011;46196;52.970;6.954;2023-04-25T12:24:16;8.82;;;2.55;;
60352;SDS011;46196;52.970;6.954;2023-04-25T12:27:16;5.80;;;2.35;;
60352;SDS011;46196;52.970;6.954;2023-04-25T12:29:35;6.07;;;2.40;;
60352;SDS011;46196;52.970;6.954;2023-04-25T12:32:01;6.32;;;2.90;;
60352;SDS011;46196;52.970;6.954;2023-04-25T12:34:26;9.00;;;2.53;;
60352;SDS011;46196;52.970;6.954;2023-04-25T12:36:52;5.03;;;2.08;;
60352;SDS011;46196;52.970;6.954;2023-04-25T12:39:20;6.45;;;2.03;;
60352;SDS011;46196;52.970;6.954;2023-04-25T12:41:47;6.93;;;2.20;;
60352;SDS011;46196;52.970;6.954;2023-04-25T12:44:13;10.07;;;2.20;;
60352;SDS011;46196;52.970;6.954;2023-04-25T12:46:39;7.05;;;2.30;;
60352;SDS011;46196;52.970;6.954;2023-04-25T12:49:06;6.60;;;1.88;;
60352;SDS011;46196;52.970;6.954;2023-04-25T12:51:33;8.13;;;2.83;;
60352;SDS011;46196;52.970;6.954;2023-04-25T12:54:02;5.85;;;2.00;;
60352;SDS011;46196;52.970;6.954;2023-04-25T12:56:29;6.65;;;3.33;;
60352;SDS011;46196;52.970;6.954;2023-04-25T12:58:56;9.25;;;2.85;;
60352;SDS011;46196;52.970;6.954;2023-04-25T13:01:22;6.63;;;2.35;;
60352;SDS011;46196;52.970;6.954;2023-04-25T13:03:48;7.63;;;2.08;;
60352;SDS011;46196;52.970;6.954;2023-04-25T13:06:15;8.45;;;2.10;;
60352;SDS011;46196;52.970;6.954;2023-04-25T13:08:41;8.68;;;2.42;;
60352;SDS011;46196;52.970;6.954;2023-04-25T13:11:07;6.20;;;2.25;;
60352;SDS011;46196;52.970;6.954;2023-04-25T13:13:33;6.00;;;2.30;;
60352;SDS011;46196;52.970;6.954;2023-04-25T13:16:00;6.85;;;1.98;;
60352;SDS011;46196;52.970;6.954;2023-04-25T13:18:27;8.30;;;2.30;;
60352;SDS011;46196;52.970;6.954;2023-04-25T13:20:56;6.20;;;2.45;;
60352;SDS011;46196;52.970;6.954;2023-04-25T13:23:24;7.35;;;2.40;;
60352;SDS011;46196;52.970;6.954;2023-04-25T13:25:51;9.65;;;2.15;;
60352;SDS011;46196;52.970;6.954;2023-04-25T13:28:16;8.02;;;2.60;;
60352;SDS011;46196;52.970;6.954;2023-04-25T13:30:42;7.13;;;2.60;;
60352;SDS011;46196;52.970;6.954;2023-04-25T13:33:08;5.13;;;2.10;;
60352;SDS011;46196;52.970;6.954;2023-04-25T13:35:36;7.20;;;2.17;;
60352;SDS011;46196;52.970;6.954;2023-04-25T13:38:03;5.80;;;2.45;;
60352;SDS011;46196;52.970;6.954;2023-04-25T13:40:29;9.55;;;2.58;;
60352;SDS011;46196;52.970;6.954;2023-04-25T13:42:55;9.13;;;2.50;;
60352;SDS011;46196;52.970;6.954;2023-04-25T13:45:21;8.75;;;2.35;;
60352;SDS011;46196;52.970;6.954;2023-04-25T13:47:47;8.93;;;2.30;;
60352;SDS011;46196;52.970;6.954;2023-04-25T13:50:13;6.50;;;2.08;;
60352;SDS011;46196;52.970;6.954;2023-04-25T13:52:40;9.68;;;2.95;;
60352;SDS011;46196;52.970;6.954;2023-04-25T13:55:06;4.65;;;2.33;;
60352;SDS011;46196;52.970;6.954;2023-04-25T13:57:33;3.00;;;1.80;;
60352;SDS011;46196;52.970;6.954;2023-04-25T13:59:59;5.97;;;2.00;;
60352;SDS011;46196;52.970;6.954;2023-04-25T14:02:29;5.60;;;1.80;;
60352;SDS011;46196;52.970;6.954;2023-04-25T14:04:55;7.10;;;2.20;;
60352;SDS011;46196;52.970;6.954;2023-04-25T14:07:21;4.80;;;2.20;;
60352;SDS011;46196;52.970;6.954;2023-04-25T14:09:46;10.20;;;2.45;;
60352;SDS011;46196;52.970;6.954;2023-04-25T14:12:12;7.80;;;2.45;;
60352;SDS011;46196;52.970;6.954;2023-04-25T14:14:38;4.05;;;1.90;;
60352;SDS011;46196;52.970;6.954;2023-04-25T14:17:04;4.00;;;2.40;;
60352;SDS011;46196;52.970;6.954;2023-04-25T14:19:30;4.03;;;2.53;;
60352;SDS011;46196;52.970;6.954;2023-04-25T14:21:55;6.60;;;2.35;;
60352;SDS011;46196;52.970;6.954;2023-04-25T14:24:21;5.88;;;2.33;;
60352;SDS011;46196;52.970;6.954;2023-04-25T14:26:47;7.30;;;2.50;;
60352;SDS011;46196;52.970;6.954;2023-04-25T14:29:12;7.30;;;2.38;;
60352;SDS011;46196;52.970;6.954;2023-04-25T14:31:38;5.88;;;2.40;;
60352;SDS011;46196;52.970;6.954;2023-04-25T14:34:05;6.60;;;2.20;;
60352;SDS011;46196;52.970;6.954;2023-04-25T14:36:31;9.35;;;3.15;;
60352;SDS011;46196;52.970;6.954;2023-04-25T14:38:57;6.32;;;2.13;;
60352;SDS011;46196;52.970;6.954;2023-04-25T14:41:24;6.18;;;2.30;;
60352;SDS011;46196;52.970;6.954;2023-04-25T14:43:50;7.80;;;2.33;;
60352;SDS011;46196;52.970;6.954;2023-04-25T14:46:16;4.18;;;2.17;;
60352;SDS011;46196;52.970;6.954;2023-04-25T14:48:42;4.55;;;2.22;;
60352;SDS011;46196;52.970;6.954;2023-04-25T14:51:07;5.00;;;2.25;;
60352;SDS011;46196;52.970;6.954;2023-04-25T14:53:33;5.55;;;2.67;;